sensor_id;sensor_type;location;lat;lon;timestamp;temperature;humidity
7900;DHT22;3995;50.856;4.404;2022-12-07T00:01:40;10.60;57.90
7900;DHT22;3995;50.856;4.404;2022-12-07T00:04:11;10.60;57.90
7900;DHT22;3995;50.856;4.404;2022-12-07T00:06:40;10.60;57.80
7900;DHT22;3995;50.856;4.404;2022-12-07T00:09:12;10.60;57.70
7900;DHT22;3995;50.856;4.404;2022-12-07T00:11:40;10.60;57.70
7900;DHT22;3995;50.856;4.404;2022-12-07T00:14:10;10.60;57.70
7900;DHT22;3995;50.856;4.404;2022-12-07T00:16:38;10.60;57.70
7900;DHT22;3995;50.856;4.404;2022-12-07T00:19:06;10.60;57.70
7900;DHT22;3995;50.856;4.404;2022-12-07T00:21:35;10.60;57.70
7900;DHT22;3995;50.856;4.404;2022-12-07T00:24:04;10.60;57.60
7900;DHT22;3995;50.856;4.404;2022-12-07T00:26:35;10.60;57.60
7900;DHT22;3995;50.856;4.404;2022-12-07T00:29:04;10.60;57.60
7900;DHT22;3995;50.856;4.404;2022-12-07T00:31:33;10.60;57.70
7900;DHT22;3995;50.856;4.404;2022-12-07T00:34:01;10.50;57.50
7900;DHT22;3995;50.856;4.404;2022-12-07T00:36:29;10.60;57.60
7900;DHT22;3995;50.856;4.404;2022-12-07T00:38:58;10.50;57.50
7900;DHT22;3995;50.856;4.404;2022-12-07T00:41:27;10.50;57.80
7900;DHT22;3995;50.856;4.404;2022-12-07T00:43:57;10.50;57.60
7900;DHT22;3995;50.856;4.404;2022-12-07T00:46:24;10.50;57.60
7900;DHT22;3995;50.856;4.404;2022-12-07T00:48:52;10.50;57.60
7900;DHT22;3995;50.856;4.404;2022-12-07T00:51:21;10.50;57.50
7900;DHT22;3995;50.856;4.404;2022-12-07T00:53:49;10.50;57.50
7900;DHT22;3995;50.856;4.404;2022-12-07T00:56:18;10.50;57.60
7900;DHT22;3995;50.856;4.404;2022-12-07T00:58:50;10.50;57.50
7900;DHT22;3995;50.856;4.404;2022-12-07T01:01:19;10.50;57.50
7900;DHT22;3995;50.856;4.404;2022-12-07T01:03:47;10.50;57.50
7900;DHT22;3995;50.856;4.404;2022-12-07T01:06:16;10.50;57.40
7900;DHT22;3995;50.856;4.404;2022-12-07T01:08:43;10.40;57.40
7900;DHT22;3995;50.856;4.404;2022-12-07T01:11:14;10.50;57.50
7900;DHT22;3995;50.856;4.404;2022-12-07T01:13:41;10.50;57.50
7900;DHT22;3995;50.856;4.404;2022-12-07T01:16:11;10.40;57.40
7900;DHT22;3995;50.856;4.404;2022-12-07T01:18:41;10.40;57.40
7900;DHT22;3995;50.856;4.404;2022-12-07T01:21:13;10.40;57.50
7900;DHT22;3995;50.856;4.404;2022-12-07T01:23:41;10.40;57.40
7900;DHT22;3995;50.856;4.404;2022-12-07T01:26:13;10.40;57.40
7900;DHT22;3995;50.856;4.404;2022-12-07T01:28:40;10.40;57.40
7900;DHT22;3995;50.856;4.404;2022-12-07T01:31:09;10.40;57.40
7900;DHT22;3995;50.856;4.404;2022-12-07T01:33:38;10.40;57.40
7900;DHT22;3995;50.856;4.404;2022-12-07T01:36:13;10.40;57.40
7900;DHT22;3995;50.856;4.404;2022-12-07T01:38:41;10.40;57.40
7900;DHT22;3995;50.856;4.404;2022-12-07T01:41:09;10.40;57.40
7900;DHT22;3995;50.856;4.404;2022-12-07T01:44:06;10.40;57.30
7900;DHT22;3995;50.856;4.404;2022-12-07T01:46:29;10.40;57.30
7900;DHT22;3995;50.856;4.404;2022-12-07T01:48:56;10.30;57.30
7900;DHT22;3995;50.856;4.404;2022-12-07T01:51:25;10.30;57.30
7900;DHT22;3995;50.856;4.404;2022-12-07T01:53:53;10.40;57.40
7900;DHT22;3995;50.856;4.404;2022-12-07T01:56:24;10.30;57.20
7900;DHT22;3995;50.856;4.404;2022-12-07T01:58:54;10.40;57.30
7900;DHT22;3995;50.856;4.404;2022-12-07T02:01:21;10.30;57.30
7900;DHT22;3995;50.856;4.404;2022-12-07T02:03:49;10.30;58.00
7900;DHT22;3995;50.856;4.404;2022-12-07T02:06:22;10.40;57.40
7900;DHT22;3995;50.856;4.404;2022-12-07T02:08:53;10.40;57.30
7900;DHT22;3995;50.856;4.404;2022-12-07T02:11:21;10.40;57.40
7900;DHT22;3995;50.856;4.404;2022-12-07T02:13:48;10.30;57.30
7900;DHT22;3995;50.856;4.404;2022-12-07T02:16:29;10.40;57.50
7900;DHT22;3995;50.856;4.404;2022-12-07T02:19:13;10.40;57.60
7900;DHT22;3995;50.856;4.404;2022-12-07T02:21:51;10.40;57.70
7900;DHT22;3995;50.856;4.404;2022-12-07T02:24:43;10.40;57.60
7900;DHT22;3995;50.856;4.404;2022-12-07T02:27:34;10.40;57.50
7900;DHT22;3995;50.856;4.404;2022-12-07T02:30:10;10.40;57.60
7900;DHT22;3995;50.856;4.404;2022-12-07T02:32:45;10.40;57.70
7900;DHT22;3995;50.856;4.404;2022-12-07T02:35:19;10.40;57.60
7900;DHT22;3995;50.856;4.404;2022-12-07T02:37:57;10.40;57.70
7900;DHT22;3995;50.856;4.404;2022-12-07T02:40:31;10.40;57.60
7900;DHT22;3995;50.856;4.404;2022-12-07T02:43:04;10.40;57.60
7900;DHT22;3995;50.856;4.404;2022-12-07T02:45:37;10.40;57.60
7900;DHT22;3995;50.856;4.404;2022-12-07T02:48:07;10.40;57.60
7900;DHT22;3995;50.856;4.404;2022-12-07T02:50:37;10.40;57.80
7900;DHT22;3995;50.856;4.404;2022-12-07T02:53:04;10.40;57.80
7900;DHT22;3995;50.856;4.404;2022-12-07T02:55:36;10.40;57.60
7900;DHT22;3995;50.856;4.404;2022-12-07T02:58:18;10.40;57.50
7900;DHT22;3995;50.856;4.404;2022-12-07T03:00:58;10.50;57.40
7900;DHT22;3995;50.856;4.404;2022-12-07T03:03:29;10.40;57.30
7900;DHT22;3995;50.856;4.404;2022-12-07T03:06:11;10.40;57.40
7900;DHT22;3995;50.856;4.404;2022-12-07T03:08:52;10.50;57.30
7900;DHT22;3995;50.856;4.404;2022-12-07T03:11:27;10.40;57.40
7900;DHT22;3995;50.856;4.404;2022-12-07T03:14:01;10.40;57.40
7900;DHT22;3995;50.856;4.404;2022-12-07T03:16:36;10.40;57.30
7900;DHT22;3995;50.856;4.404;2022-12-07T03:19:08;10.40;57.30
7900;DHT22;3995;50.856;4.404;2022-12-07T03:21:40;10.30;57.20
7900;DHT22;3995;50.856;4.404;2022-12-07T03:24:12;10.30;57.30
7900;DHT22;3995;50.856;4.404;2022-12-07T03:26:42;10.30;57.30
7900;DHT22;3995;50.856;4.404;2022-12-07T03:29:14;10.30;57.30
7900;DHT22;3995;50.856;4.404;2022-12-07T03:31:48;10.30;57.30
7900;DHT22;3995;50.856;4.404;2022-12-07T03:34:21;10.30;57.30
7900;DHT22;3995;50.856;4.404;2022-12-07T03:36:54;10.30;57.30
7900;DHT22;3995;50.856;4.404;2022-12-07T03:39:25;10.30;57.40
7900;DHT22;3995;50.856;4.404;2022-12-07T03:41:53;10.30;57.40
7900;DHT22;3995;50.856;4.404;2022-12-07T03:44:22;10.30;57.50
7900;DHT22;3995;50.856;4.404;2022-12-07T03:46:59;10.30;57.40
7900;DHT22;3995;50.856;4.404;2022-12-07T03:49:32;10.30;57.30
7900;DHT22;3995;50.856;4.404;2022-12-07T03:52:03;10.30;57.40
7900;DHT22;3995;50.856;4.404;2022-12-07T03:54:37;10.30;57.30
7900;DHT22;3995;50.856;4.404;2022-12-07T03:57:08;10.30;57.40
7900;DHT22;3995;50.856;4.404;2022-12-07T03:59:36;10.30;57.40
7900;DHT22;3995;50.856;4.404;2022-12-07T04:02:07;10.30;57.40
7900;DHT22;3995;50.856;4.404;2022-12-07T04:04:37;10.30;57.20
7900;DHT22;3995;50.856;4.404;2022-12-07T04:07:05;10.30;57.30
7900;DHT22;3995;50.856;4.404;2022-12-07T04:09:32;10.30;57.20
7900;DHT22;3995;50.856;4.404;2022-12-07T04:11:59;10.30;57.20
7900;DHT22;3995;50.856;4.404;2022-12-07T04:14:27;10.30;57.20
7900;DHT22;3995;50.856;4.404;2022-12-07T04:16:57;10.30;57.20
7900;DHT22;3995;50.856;4.404;2022-12-07T04:19:34;10.30;57.10
7900;DHT22;3995;50.856;4.404;2022-12-07T04:22:03;10.30;57.10
7900;DHT22;3995;50.856;4.404;2022-12-07T04:24:30;10.30;57.10
7900;DHT22;3995;50.856;4.404;2022-12-07T04:26:57;10.30;57.10
7900;DHT22;3995;50.856;4.404;2022-12-07T04:29:25;10.30;57.10
7900;DHT22;3995;50.856;4.404;2022-12-07T04:31:53;10.30;56.90
7900;DHT22;3995;50.856;4.404;2022-12-07T04:34:21;10.40;57.00
7900;DHT22;3995;50.856;4.404;2022-12-07T04:36:49;10.30;56.90
7900;DHT22;3995;50.856;4.404;2022-12-07T04:39:20;10.30;56.90
7900;DHT22;3995;50.856;4.404;2022-12-07T04:41:48;10.30;57.00
7900;DHT22;3995;50.856;4.404;2022-12-07T04:44:16;10.30;57.10
7900;DHT22;3995;50.856;4.404;2022-12-07T04:46:44;10.30;57.10
7900;DHT22;3995;50.856;4.404;2022-12-07T04:49:13;10.30;57.10
7900;DHT22;3995;50.856;4.404;2022-12-07T04:51:41;10.30;57.10
7900;DHT22;3995;50.856;4.404;2022-12-07T04:54:10;10.20;57.00
7900;DHT22;3995;50.856;4.404;2022-12-07T04:56:37;10.20;57.10
7900;DHT22;3995;50.856;4.404;2022-12-07T04:59:05;10.20;57.20
7900;DHT22;3995;50.856;4.404;2022-12-07T05:01:33;10.20;57.20
7900;DHT22;3995;50.856;4.404;2022-12-07T05:04:02;10.20;57.20
7900;DHT22;3995;50.856;4.404;2022-12-07T05:06:29;10.20;57.20
7900;DHT22;3995;50.856;4.404;2022-12-07T05:08:56;10.20;57.10
7900;DHT22;3995;50.856;4.404;2022-12-07T05:11:25;10.20;57.00
7900;DHT22;3995;50.856;4.404;2022-12-07T05:14:12;10.20;56.90
7900;DHT22;3995;50.856;4.404;2022-12-07T05:16:41;10.20;57.00
7900;DHT22;3995;50.856;4.404;2022-12-07T05:19:09;10.20;57.00
7900;DHT22;3995;50.856;4.404;2022-12-07T05:21:36;10.20;57.00
7900;DHT22;3995;50.856;4.404;2022-12-07T05:24:04;10.20;57.00
7900;DHT22;3995;50.856;4.404;2022-12-07T05:26:33;10.20;57.00
7900;DHT22;3995;50.856;4.404;2022-12-07T05:29:00;10.20;57.00
7900;DHT22;3995;50.856;4.404;2022-12-07T05:31:27;10.20;57.00
7900;DHT22;3995;50.856;4.404;2022-12-07T05:33:55;10.20;57.00
7900;DHT22;3995;50.856;4.404;2022-12-07T05:36:22;10.20;57.00
7900;DHT22;3995;50.856;4.404;2022-12-07T05:38:50;10.20;57.10
7900;DHT22;3995;50.856;4.404;2022-12-07T05:41:18;10.20;57.10
7900;DHT22;3995;50.856;4.404;2022-12-07T05:44:05;10.20;57.10
7900;DHT22;3995;50.856;4.404;2022-12-07T05:46:32;10.20;57.10
7900;DHT22;3995;50.856;4.404;2022-12-07T05:48:59;10.20;57.10
7900;DHT22;3995;50.856;4.404;2022-12-07T05:51:27;10.20;57.00
7900;DHT22;3995;50.856;4.404;2022-12-07T05:53:54;10.30;57.00
7900;DHT22;3995;50.856;4.404;2022-12-07T05:56:21;10.30;57.00
7900;DHT22;3995;50.856;4.404;2022-12-07T05:58:50;10.30;57.00
7900;DHT22;3995;50.856;4.404;2022-12-07T06:01:35;10.30;56.90
7900;DHT22;3995;50.856;4.404;2022-12-07T06:04:03;10.30;56.90
7900;DHT22;3995;50.856;4.404;2022-12-07T06:06:30;10.20;56.80
7900;DHT22;3995;50.856;4.404;2022-12-07T06:08:57;10.30;56.80
7900;DHT22;3995;50.856;4.404;2022-12-07T06:11:25;10.20;56.80
7900;DHT22;3995;50.856;4.404;2022-12-07T06:14:09;10.20;56.70
7900;DHT22;3995;50.856;4.404;2022-12-07T06:16:38;10.20;56.70
7900;DHT22;3995;50.856;4.404;2022-12-07T06:19:05;10.20;56.70
7900;DHT22;3995;50.856;4.404;2022-12-07T06:21:33;10.20;56.80
7900;DHT22;3995;50.856;4.404;2022-12-07T06:24:00;10.10;56.70
7900;DHT22;3995;50.856;4.404;2022-12-07T06:26:27;10.10;56.80
7900;DHT22;3995;50.856;4.404;2022-12-07T06:28:55;10.10;56.80
7900;DHT22;3995;50.856;4.404;2022-12-07T06:31:22;10.20;56.90
7900;DHT22;3995;50.856;4.404;2022-12-07T06:33:50;10.20;56.90
7900;DHT22;3995;50.856;4.404;2022-12-07T06:36:18;10.20;56.80
7900;DHT22;3995;50.856;4.404;2022-12-07T06:38:45;10.20;56.80
7900;DHT22;3995;50.856;4.404;2022-12-07T06:41:12;10.20;56.80
7900;DHT22;3995;50.856;4.404;2022-12-07T06:43:39;10.20;56.70
7900;DHT22;3995;50.856;4.404;2022-12-07T06:46:07;10.20;56.70
7900;DHT22;3995;50.856;4.404;2022-12-07T06:48:35;10.20;56.70
7900;DHT22;3995;50.856;4.404;2022-12-07T06:51:04;10.20;56.70
7900;DHT22;3995;50.856;4.404;2022-12-07T06:53:31;10.20;56.80
7900;DHT22;3995;50.856;4.404;2022-12-07T06:55:59;10.20;56.70
7900;DHT22;3995;50.856;4.404;2022-12-07T06:58:26;10.20;56.80
7900;DHT22;3995;50.856;4.404;2022-12-07T07:00:54;10.30;57.00
7900;DHT22;3995;50.856;4.404;2022-12-07T07:03:22;10.30;57.00
7900;DHT22;3995;50.856;4.404;2022-12-07T07:05:49;10.30;57.00
7900;DHT22;3995;50.856;4.404;2022-12-07T07:08:21;10.30;57.50
7900;DHT22;3995;50.856;4.404;2022-12-07T07:10:48;10.40;57.00
7900;DHT22;3995;50.856;4.404;2022-12-07T07:13:16;10.40;57.10
7900;DHT22;3995;50.856;4.404;2022-12-07T07:15:43;10.40;57.00
7900;DHT22;3995;50.856;4.404;2022-12-07T07:18:10;10.40;56.80
7900;DHT22;3995;50.856;4.404;2022-12-07T07:20:38;10.40;56.80
7900;DHT22;3995;50.856;4.404;2022-12-07T07:23:05;10.40;56.70
7900;DHT22;3995;50.856;4.404;2022-12-07T07:25:34;10.40;56.70
7900;DHT22;3995;50.856;4.404;2022-12-07T07:28:02;10.40;56.70
7900;DHT22;3995;50.856;4.404;2022-12-07T07:30:30;10.40;56.70
7900;DHT22;3995;50.856;4.404;2022-12-07T07:32:58;10.40;56.70
7900;DHT22;3995;50.856;4.404;2022-12-07T07:35:25;10.40;56.70
7900;DHT22;3995;50.856;4.404;2022-12-07T07:37:53;10.30;56.60
7900;DHT22;3995;50.856;4.404;2022-12-07T07:40:20;10.30;56.60
7900;DHT22;3995;50.856;4.404;2022-12-07T07:42:50;10.30;56.60
7900;DHT22;3995;50.856;4.404;2022-12-07T07:45:19;10.30;56.60
7900;DHT22;3995;50.856;4.404;2022-12-07T07:47:46;10.30;56.70
7900;DHT22;3995;50.856;4.404;2022-12-07T07:50:14;10.30;57.20
7900;DHT22;3995;50.856;4.404;2022-12-07T07:52:42;10.30;56.70
7900;DHT22;3995;50.856;4.404;2022-12-07T07:55:10;10.30;56.70
7900;DHT22;3995;50.856;4.404;2022-12-07T07:57:38;10.30;56.80
7900;DHT22;3995;50.856;4.404;2022-12-07T08:00:10;10.30;56.70
7900;DHT22;3995;50.856;4.404;2022-12-07T08:02:37;10.30;56.60
7900;DHT22;3995;50.856;4.404;2022-12-07T08:05:05;10.30;56.60
7900;DHT22;3995;50.856;4.404;2022-12-07T08:07:32;10.30;56.60
7900;DHT22;3995;50.856;4.404;2022-12-07T08:10:00;10.30;56.50
7900;DHT22;3995;50.856;4.404;2022-12-07T08:12:27;10.30;56.50
7900;DHT22;3995;50.856;4.404;2022-12-07T08:14:54;10.30;56.50
7900;DHT22;3995;50.856;4.404;2022-12-07T08:17:23;10.40;56.60
7900;DHT22;3995;50.856;4.404;2022-12-07T08:19:51;10.40;56.50
7900;DHT22;3995;50.856;4.404;2022-12-07T08:22:18;10.30;56.30
7900;DHT22;3995;50.856;4.404;2022-12-07T08:24:45;10.30;56.30
7900;DHT22;3995;50.856;4.404;2022-12-07T08:27:12;10.30;56.30
7900;DHT22;3995;50.856;4.404;2022-12-07T08:29:39;10.30;56.30
7900;DHT22;3995;50.856;4.404;2022-12-07T08:32:06;10.30;56.40
7900;DHT22;3995;50.856;4.404;2022-12-07T08:34:35;10.30;56.40
7900;DHT22;3995;50.856;4.404;2022-12-07T08:37:02;10.30;56.40
7900;DHT22;3995;50.856;4.404;2022-12-07T08:39:29;10.30;56.40
7900;DHT22;3995;50.856;4.404;2022-12-07T08:41:57;10.30;56.50
7900;DHT22;3995;50.856;4.404;2022-12-07T08:44:24;10.30;57.10
7900;DHT22;3995;50.856;4.404;2022-12-07T08:46:55;10.30;56.50
7900;DHT22;3995;50.856;4.404;2022-12-07T08:49:26;10.30;56.60
7900;DHT22;3995;50.856;4.404;2022-12-07T08:51:56;10.30;56.60
7900;DHT22;3995;50.856;4.404;2022-12-07T08:54:24;10.30;56.60
7900;DHT22;3995;50.856;4.404;2022-12-07T08:56:51;10.30;57.30
7900;DHT22;3995;50.856;4.404;2022-12-07T08:59:21;10.30;56.80
7900;DHT22;3995;50.856;4.404;2022-12-07T09:01:49;10.30;56.80
7900;DHT22;3995;50.856;4.404;2022-12-07T09:04:16;10.30;56.90
7900;DHT22;3995;50.856;4.404;2022-12-07T09:06:43;10.30;56.90
7900;DHT22;3995;50.856;4.404;2022-12-07T09:09:13;10.30;57.00
7900;DHT22;3995;50.856;4.404;2022-12-07T09:11:42;10.40;57.20
7900;DHT22;3995;50.856;4.404;2022-12-07T09:14:11;10.40;57.20
7900;DHT22;3995;50.856;4.404;2022-12-07T09:16:38;10.40;57.20
7900;DHT22;3995;50.856;4.404;2022-12-07T09:19:05;10.40;57.10
7900;DHT22;3995;50.856;4.404;2022-12-07T09:21:32;10.40;57.00
7900;DHT22;3995;50.856;4.404;2022-12-07T09:24:00;10.50;57.10
7900;DHT22;3995;50.856;4.404;2022-12-07T09:26:29;10.50;57.10
7900;DHT22;3995;50.856;4.404;2022-12-07T09:28:56;10.40;56.90
7900;DHT22;3995;50.856;4.404;2022-12-07T09:31:23;10.40;57.00
7900;DHT22;3995;50.856;4.404;2022-12-07T09:33:54;10.50;57.10
7900;DHT22;3995;50.856;4.404;2022-12-07T09:36:22;10.50;57.20
7900;DHT22;3995;50.856;4.404;2022-12-07T09:38:49;10.50;57.30
7900;DHT22;3995;50.856;4.404;2022-12-07T09:41:16;10.50;57.20
7900;DHT22;3995;50.856;4.404;2022-12-07T09:43:45;10.50;57.20
7900;DHT22;3995;50.856;4.404;2022-12-07T09:46:14;10.60;57.20
7900;DHT22;3995;50.856;4.404;2022-12-07T09:48:43;10.60;57.10
7900;DHT22;3995;50.856;4.404;2022-12-07T09:51:13;10.50;57.10
7900;DHT22;3995;50.856;4.404;2022-12-07T09:53:42;10.60;57.20
7900;DHT22;3995;50.856;4.404;2022-12-07T09:56:12;10.50;57.10
7900;DHT22;3995;50.856;4.404;2022-12-07T09:58:40;10.60;57.20
7900;DHT22;3995;50.856;4.404;2022-12-07T10:01:13;10.50;57.10
7900;DHT22;3995;50.856;4.404;2022-12-07T10:03:47;10.50;57.70
7900;DHT22;3995;50.856;4.404;2022-12-07T10:06:15;10.60;57.40
7900;DHT22;3995;50.856;4.404;2022-12-07T10:08:43;10.50;57.50
7900;DHT22;3995;50.856;4.404;2022-12-07T10:11:11;10.50;57.60
7900;DHT22;3995;50.856;4.404;2022-12-07T10:13:42;10.50;57.60
7900;DHT22;3995;50.856;4.404;2022-12-07T10:16:32;10.60;57.60
7900;DHT22;3995;50.856;4.404;2022-12-07T10:19:19;10.60;57.50
7900;DHT22;3995;50.856;4.404;2022-12-07T10:22:01;10.60;57.60
7900;DHT22;3995;50.856;4.404;2022-12-07T10:24:28;10.60;57.50
7900;DHT22;3995;50.856;4.404;2022-12-07T10:26:56;10.50;57.50
7900;DHT22;3995;50.856;4.404;2022-12-07T10:29:29;10.50;57.50
7900;DHT22;3995;50.856;4.404;2022-12-07T10:32:00;10.60;57.60
7900;DHT22;3995;50.856;4.404;2022-12-07T10:34:30;10.50;57.80
7900;DHT22;3995;50.856;4.404;2022-12-07T10:37:14;10.50;57.70
7900;DHT22;3995;50.856;4.404;2022-12-07T10:39:43;10.60;57.80
7900;DHT22;3995;50.856;4.404;2022-12-07T10:42:18;10.60;58.00
7900;DHT22;3995;50.856;4.404;2022-12-07T10:44:47;10.60;57.90
7900;DHT22;3995;50.856;4.404;2022-12-07T10:47:25;10.60;58.00
7900;DHT22;3995;50.856;4.404;2022-12-07T10:53:21;10.60;57.90
7900;DHT22;3995;50.856;4.404;2022-12-07T10:56:18;10.60;58.10
7900;DHT22;3995;50.856;4.404;2022-12-07T10:58:57;10.60;58.10
7900;DHT22;3995;50.856;4.404;2022-12-07T11:01:31;10.60;58.20
7900;DHT22;3995;50.856;4.404;2022-12-07T11:07:12;10.70;58.20
7900;DHT22;3995;50.856;4.404;2022-12-07T11:09:51;10.70;58.20
7900;DHT22;3995;50.856;4.404;2022-12-07T11:12:30;10.70;58.00
7900;DHT22;3995;50.856;4.404;2022-12-07T11:15:04;10.70;58.10
7900;DHT22;3995;50.856;4.404;2022-12-07T11:17:42;10.70;58.50
7900;DHT22;3995;50.856;4.404;2022-12-07T11:20:18;10.70;58.00
7900;DHT22;3995;50.856;4.404;2022-12-07T11:22:59;10.70;58.00
7900;DHT22;3995;50.856;4.404;2022-12-07T11:25:32;10.70;58.10
7900;DHT22;3995;50.856;4.404;2022-12-07T11:28:15;10.70;58.20
7900;DHT22;3995;50.856;4.404;2022-12-07T11:30:51;10.70;58.00
7900;DHT22;3995;50.856;4.404;2022-12-07T11:33:26;10.70;57.80
7900;DHT22;3995;50.856;4.404;2022-12-07T11:36:07;10.70;57.80
7900;DHT22;3995;50.856;4.404;2022-12-07T11:38:47;10.70;57.80
7900;DHT22;3995;50.856;4.404;2022-12-07T11:41:21;10.70;58.00
7900;DHT22;3995;50.856;4.404;2022-12-07T11:43:56;10.60;57.90
7900;DHT22;3995;50.856;4.404;2022-12-07T11:46:45;10.70;58.00
7900;DHT22;3995;50.856;4.404;2022-12-07T11:49:23;10.70;57.90
7900;DHT22;3995;50.856;4.404;2022-12-07T11:51:56;10.70;57.80
7900;DHT22;3995;50.856;4.404;2022-12-07T11:54:28;10.70;57.80
7900;DHT22;3995;50.856;4.404;2022-12-07T11:57:01;10.70;57.80
7900;DHT22;3995;50.856;4.404;2022-12-07T11:59:32;10.70;57.80
7900;DHT22;3995;50.856;4.404;2022-12-07T12:02:12;10.70;57.70
7900;DHT22;3995;50.856;4.404;2022-12-07T12:04:47;10.70;57.50
7900;DHT22;3995;50.856;4.404;2022-12-07T12:07:21;10.70;57.50
7900;DHT22;3995;50.856;4.404;2022-12-07T12:09:54;10.70;57.70
7900;DHT22;3995;50.856;4.404;2022-12-07T12:12:34;10.70;57.70
7900;DHT22;3995;50.856;4.404;2022-12-07T12:15:18;10.70;57.70
7900;DHT22;3995;50.856;4.404;2022-12-07T12:20:49;10.80;57.50
7900;DHT22;3995;50.856;4.404;2022-12-07T12:23:21;10.70;57.50
7900;DHT22;3995;50.856;4.404;2022-12-07T12:25:54;10.70;57.50
7900;DHT22;3995;50.856;4.404;2022-12-07T12:28:27;10.70;57.50
7900;DHT22;3995;50.856;4.404;2022-12-07T12:31:07;10.80;57.50
7900;DHT22;3995;50.856;4.404;2022-12-07T12:33:37;10.80;57.40
7900;DHT22;3995;50.856;4.404;2022-12-07T12:36:19;10.80;57.40
7900;DHT22;3995;50.856;4.404;2022-12-07T12:39:07;10.80;57.20
7900;DHT22;3995;50.856;4.404;2022-12-07T12:41:55;10.80;57.20
7900;DHT22;3995;50.856;4.404;2022-12-07T12:45:04;10.80;57.00
7900;DHT22;3995;50.856;4.404;2022-12-07T12:47:59;10.80;57.00
7900;DHT22;3995;50.856;4.404;2022-12-07T12:50:29;10.80;57.00
7900;DHT22;3995;50.856;4.404;2022-12-07T12:53:14;10.80;57.30
7900;DHT22;3995;50.856;4.404;2022-12-07T12:58:47;10.80;56.80
7900;DHT22;3995;50.856;4.404;2022-12-07T13:01:45;10.70;57.00
7900;DHT22;3995;50.856;4.404;2022-12-07T13:07:53;10.80;57.00
7900;DHT22;3995;50.856;4.404;2022-12-07T13:10:39;10.80;57.10
7900;DHT22;3995;50.856;4.404;2022-12-07T13:16:41;10.80;57.20
7900;DHT22;3995;50.856;4.404;2022-12-07T13:22:38;10.90;57.30
7900;DHT22;3995;50.856;4.404;2022-12-07T13:25:09;10.90;57.20
7900;DHT22;3995;50.856;4.404;2022-12-07T13:27:37;10.80;57.20
7900;DHT22;3995;50.856;4.404;2022-12-07T13:30:14;10.90;57.10
7900;DHT22;3995;50.856;4.404;2022-12-07T13:32:51;10.90;56.80
7900;DHT22;3995;50.856;4.404;2022-12-07T13:35:33;10.90;56.60
7900;DHT22;3995;50.856;4.404;2022-12-07T13:38:22;11.00;56.50
7900;DHT22;3995;50.856;4.404;2022-12-07T13:41:04;10.90;56.60
7900;DHT22;3995;50.856;4.404;2022-12-07T13:43:41;11.00;56.50
7900;DHT22;3995;50.856;4.404;2022-12-07T13:46:10;10.90;56.50
7900;DHT22;3995;50.856;4.404;2022-12-07T13:48:45;10.90;56.50
7900;DHT22;3995;50.856;4.404;2022-12-07T13:51:22;10.90;56.50
7900;DHT22;3995;50.856;4.404;2022-12-07T13:53:51;11.00;56.50
7900;DHT22;3995;50.856;4.404;2022-12-07T13:56:21;10.90;56.30
7900;DHT22;3995;50.856;4.404;2022-12-07T13:58:48;10.90;56.20
7900;DHT22;3995;50.856;4.404;2022-12-07T14:01:15;10.90;56.20
7900;DHT22;3995;50.856;4.404;2022-12-07T14:03:45;10.90;56.20
7900;DHT22;3995;50.856;4.404;2022-12-07T14:06:20;11.00;56.40
7900;DHT22;3995;50.856;4.404;2022-12-07T14:09:07;11.00;56.50
7900;DHT22;3995;50.856;4.404;2022-12-07T14:11:34;11.00;56.50
7900;DHT22;3995;50.856;4.404;2022-12-07T14:14:02;10.90;56.70
7900;DHT22;3995;50.856;4.404;2022-12-07T14:16:35;10.90;57.00
7900;DHT22;3995;50.856;4.404;2022-12-07T14:19:41;10.90;57.20
7900;DHT22;3995;50.856;4.404;2022-12-07T14:22:28;11.00;57.30
7900;DHT22;3995;50.856;4.404;2022-12-07T14:25:00;11.00;57.40
7900;DHT22;3995;50.856;4.404;2022-12-07T14:27:32;10.90;57.50
7900;DHT22;3995;50.856;4.404;2022-12-07T14:30:02;10.90;57.70
7900;DHT22;3995;50.856;4.404;2022-12-07T14:32:30;10.90;57.80
7900;DHT22;3995;50.856;4.404;2022-12-07T14:35:00;11.00;58.00
7900;DHT22;3995;50.856;4.404;2022-12-07T14:37:30;11.00;57.90
7900;DHT22;3995;50.856;4.404;2022-12-07T14:39:57;11.00;57.90
7900;DHT22;3995;50.856;4.404;2022-12-07T14:42:28;11.00;58.50
7900;DHT22;3995;50.856;4.404;2022-12-07T14:44:56;11.00;58.00
7900;DHT22;3995;50.856;4.404;2022-12-07T14:47:24;11.00;58.00
7900;DHT22;3995;50.856;4.404;2022-12-07T14:49:52;11.00;57.90
7900;DHT22;3995;50.856;4.404;2022-12-07T14:52:22;11.00;57.60
7900;DHT22;3995;50.856;4.404;2022-12-07T14:54:49;11.00;57.30
7900;DHT22;3995;50.856;4.404;2022-12-07T14:57:17;10.90;57.30
7900;DHT22;3995;50.856;4.404;2022-12-07T14:59:44;10.90;57.40
7900;DHT22;3995;50.856;4.404;2022-12-07T15:02:13;10.90;57.40
7900;DHT22;3995;50.856;4.404;2022-12-07T15:04:40;10.90;57.50
7900;DHT22;3995;50.856;4.404;2022-12-07T15:07:12;11.00;57.30
7900;DHT22;3995;50.856;4.404;2022-12-07T15:09:43;11.00;57.20
7900;DHT22;3995;50.856;4.404;2022-12-07T15:12:10;11.00;57.10
7900;DHT22;3995;50.856;4.404;2022-12-07T15:14:37;10.90;57.00
7900;DHT22;3995;50.856;4.404;2022-12-07T15:17:05;10.90;57.00
7900;DHT22;3995;50.856;4.404;2022-12-07T15:19:32;10.90;57.00
7900;DHT22;3995;50.856;4.404;2022-12-07T15:21:59;10.90;57.00
7900;DHT22;3995;50.856;4.404;2022-12-07T15:24:27;11.00;57.10
7900;DHT22;3995;50.856;4.404;2022-12-07T15:26:56;10.90;57.00
7900;DHT22;3995;50.856;4.404;2022-12-07T15:29:23;10.90;57.40
7900;DHT22;3995;50.856;4.404;2022-12-07T15:31:51;10.90;56.80
7900;DHT22;3995;50.856;4.404;2022-12-07T15:34:18;10.90;56.90
7900;DHT22;3995;50.856;4.404;2022-12-07T15:36:46;10.90;56.80
7900;DHT22;3995;50.856;4.404;2022-12-07T15:39:13;10.90;56.80
7900;DHT22;3995;50.856;4.404;2022-12-07T15:41:40;10.90;56.90
7900;DHT22;3995;50.856;4.404;2022-12-07T15:44:11;10.90;56.80
7900;DHT22;3995;50.856;4.404;2022-12-07T15:46:56;11.00;56.70
7900;DHT22;3995;50.856;4.404;2022-12-07T15:49:23;10.90;56.60
7900;DHT22;3995;50.856;4.404;2022-12-07T15:51:50;10.90;56.50
7900;DHT22;3995;50.856;4.404;2022-12-07T15:54:20;10.90;56.50
7900;DHT22;3995;50.856;4.404;2022-12-07T15:56:47;10.90;56.40
7900;DHT22;3995;50.856;4.404;2022-12-07T15:59:16;10.90;56.40
7900;DHT22;3995;50.856;4.404;2022-12-07T16:01:44;10.80;56.20
7900;DHT22;3995;50.856;4.404;2022-12-07T16:04:11;10.80;56.30
7900;DHT22;3995;50.856;4.404;2022-12-07T16:06:39;10.80;56.40
7900;DHT22;3995;50.856;4.404;2022-12-07T16:09:06;10.80;56.40
7900;DHT22;3995;50.856;4.404;2022-12-07T16:11:33;10.80;56.30
7900;DHT22;3995;50.856;4.404;2022-12-07T16:14:00;10.80;56.20
7900;DHT22;3995;50.856;4.404;2022-12-07T16:16:30;10.80;56.30
7900;DHT22;3995;50.856;4.404;2022-12-07T16:18:58;10.80;56.30
7900;DHT22;3995;50.856;4.404;2022-12-07T16:21:26;10.80;56.20
7900;DHT22;3995;50.856;4.404;2022-12-07T16:23:53;10.80;56.20
7900;DHT22;3995;50.856;4.404;2022-12-07T16:26:22;10.80;56.20
7900;DHT22;3995;50.856;4.404;2022-12-07T16:28:49;10.80;56.20
7900;DHT22;3995;50.856;4.404;2022-12-07T16:31:19;10.70;56.50
7900;DHT22;3995;50.856;4.404;2022-12-07T16:33:49;10.70;56.00
7900;DHT22;3995;50.856;4.404;2022-12-07T16:36:17;10.80;56.30
7900;DHT22;3995;50.856;4.404;2022-12-07T16:38:44;10.80;56.90
7900;DHT22;3995;50.856;4.404;2022-12-07T16:41:12;10.70;56.90
7900;DHT22;3995;50.856;4.404;2022-12-07T16:43:39;10.80;56.40
7900;DHT22;3995;50.856;4.404;2022-12-07T16:46:07;10.80;56.40
7900;DHT22;3995;50.856;4.404;2022-12-07T16:48:36;10.80;56.30
7900;DHT22;3995;50.856;4.404;2022-12-07T16:51:06;10.80;56.30